Time,TemperatureF,DewpointF,PressureIn,WindDirection,WindDirectionDegrees,WindSpeedMPH,WindSpeedGustMPH,Humidity,HourlyPrecipIn,Conditions,Clouds,dailyrainin,SolarRadiationWatts/m^2,SoftwareType,DateUTC
2013-03-06 00:02:00,40.0,40.0,-100.00,West,261,3.0,10.0,99,0.04,,,0.55,0.000000,,2013-03-06 05:02:00,
2013-03-06 00:32:00,39.0,39.0,-100.00,WNW,299,1.0,5.0,100,0.02,,,0.57,0.000000,,2013-03-06 05:32:00,
2013-03-06 00:42:00,39.0,39.0,-100.00,WNW,299,1.0,5.0,100,0.02,,,0.57,0.000000,,2013-03-06 05:42:00,
2013-03-06 00:52:00,39.0,39.0,-100.00,WNW,299,1.0,5.0,100,0.02,,,0.57,0.000000,,2013-03-06 05:52:00,
2013-03-06 01:02:00,39.0,39.0,-100.00,WNW,299,1.0,5.0,100,0.02,,,0.57,0.000000,,2013-03-06 06:02:00,
2013-03-06 01:32:00,40.0,32.0,-100.00,NW,309,9.0,21.0,73,0.00,,,0.57,0.000000,,2013-03-06 06:32:00,
2013-03-06 01:42:00,40.0,32.0,-100.00,NW,309,9.0,21.0,73,0.00,,,0.57,0.000000,,2013-03-06 06:42:00,
2013-03-06 01:52:00,40.0,32.0,-100.00,NW,309,9.0,21.0,73,0.00,,,0.57,0.000000,,2013-03-06 06:52:00,
2013-03-06 02:01:00,40.0,32.0,-100.00,NW,309,9.0,21.0,73,0.00,,,0.57,0.000000,,2013-03-06 07:01:00,
2013-03-06 02:22:00,37.0,26.0,-100.00,NW,305,7.0,20.0,65,0.00,,,0.57,0.000000,,2013-03-06 07:22:00,
2013-03-06 02:32:00,37.0,26.0,-100.00,NW,305,7.0,20.0,65,0.00,,,0.57,0.000000,,2013-03-06 07:32:00,
2013-03-06 02:42:00,37.0,26.0,-100.00,NW,305,7.0,20.0,65,0.00,,,0.57,0.000000,,2013-03-06 07:42:00,
2013-03-06 02:52:00,37.0,26.0,-100.00,NW,305,7.0,20.0,65,0.00,,,0.57,0.000000,,2013-03-06 07:52:00,
2013-03-06 03:01:00,37.0,26.0,-100.00,NW,305,7.0,20.0,65,0.00,,,0.57,0.000000,,2013-03-06 08:01:00,
2013-03-06 03:32:00,35.0,25.0,-100.00,NNW,327,5.0,15.0,66,0.00,,,-99.99,0.000000,,2013-03-06 08:32:00,
2013-03-06 03:42:00,35.0,25.0,-100.00,NNW,327,5.0,15.0,66,0.00,,,-99.99,0.000000,,2013-03-06 08:42:00,
2013-03-06 03:52:00,35.0,25.0,-100.00,NNW,327,5.0,15.0,66,0.00,,,-99.99,0.000000,,2013-03-06 08:52:00,
2013-03-06 04:02:00,35.0,25.0,-100.00,NNW,327,5.0,15.0,66,0.00,,,-99.99,0.000000,,2013-03-06 09:02:00,
2013-03-06 04:32:00,35.0,22.0,-100.00,WNW,294,8.0,17.0,59,0.00,,,0.57,0.000000,,2013-03-06 09:32:00,
2013-03-06 04:42:00,35.0,22.0,-100.00,WNW,294,8.0,17.0,59,0.00,,,0.57,0.000000,,2013-03-06 09:42:00,
2013-03-06 04:52:00,35.0,22.0,-100.00,WNW,294,8.0,17.0,59,0.00,,,0.57,0.000000,,2013-03-06 09:52:00,
2013-03-06 05:02:00,35.0,22.0,-100.00,WNW,294,8.0,17.0,59,0.00,,,0.57,0.000000,,2013-03-06 10:02:00,
2013-03-06 05:22:00,33.0,21.0,-100.00,West,275,5.0,19.0,62,0.00,,,0.57,0.000000,,2013-03-06 10:22:00,
2013-03-06 05:32:00,33.0,21.0,-100.00,West,275,5.0,19.0,62,0.00,,,0.57,0.000000,,2013-03-06 10:32:00,
2013-03-06 05:42:00,33.0,21.0,-100.00,West,275,5.0,19.0,62,0.00,,,0.57,0.000000,,2013-03-06 10:42:00,
2013-03-06 05:52:00,33.0,21.0,-100.00,West,275,5.0,19.0,62,0.00,,,0.57,0.000000,,2013-03-06 10:52:00,
2013-03-06 06:02:00,33.0,21.0,-100.00,West,275,5.0,19.0,62,0.00,,,0.57,0.000000,,2013-03-06 11:02:00,
2013-03-06 06:23:00,32.0,20.0,-100.00,WNW,300,6.0,12.0,62,0.00,,,0.57,0.000000,,2013-03-06 11:23:00,
2013-03-06 06:32:00,32.0,20.0,-100.00,WNW,300,6.0,12.0,62,0.00,,,0.57,0.000000,,2013-03-06 11:32:00,
2013-03-06 06:42:00,32.0,20.0,-100.00,WNW,300,6.0,12.0,62,0.00,,,0.57,0.000000,,2013-03-06 11:42:00,
2013-03-06 06:52:00,32.0,20.0,-100.00,WNW,300,6.0,12.0,62,0.00,,,0.57,0.000000,,2013-03-06 11:52:00,
2013-03-06 07:02:00,32.0,20.0,-100.00,WNW,300,6.0,12.0,62,0.00,,,0.57,0.000000,,2013-03-06 12:02:00,
2013-03-06 07:33:00,32.0,18.0,-100.00,NW,305,8.0,22.0,55,0.00,,,0.57,3.000000,,2013-03-06 12:33:00,
2013-03-06 07:43:00,32.0,18.0,-100.00,NW,305,8.0,22.0,55,0.00,,,0.57,3.000000,,2013-03-06 12:43:00,
2013-03-06 07:53:00,32.0,18.0,-100.00,NW,305,8.0,22.0,55,0.00,,,0.57,3.000000,,2013-03-06 12:53:00,
2013-03-06 08:02:00,32.0,18.0,-100.00,NW,305,8.0,22.0,55,0.00,,,0.57,3.000000,,2013-03-06 13:02:00,
2013-03-06 08:32:00,34.0,19.0,-100.00,WNW,291,5.0,15.0,54,0.00,,,0.57,54.000000,,2013-03-06 13:32:00,
2013-03-06 08:42:00,34.0,19.0,-100.00,WNW,291,5.0,15.0,54,0.00,,,0.57,54.000000,,2013-03-06 13:42:00,
2013-03-06 08:52:00,34.0,19.0,-100.00,WNW,291,5.0,15.0,54,0.00,,,0.57,54.000000,,2013-03-06 13:52:00,
2013-03-06 09:02:00,34.0,19.0,-100.00,WNW,291,5.0,15.0,54,0.00,,,0.57,54.000000,,2013-03-06 14:02:00,
2013-03-06 09:32:00,35.0,19.0,-100.00,NNW,329,6.0,13.0,52,0.00,,,0.57,106.000000,,2013-03-06 14:32:00,
2013-03-06 09:42:00,35.0,19.0,-100.00,NNW,329,6.0,13.0,52,0.00,,,0.57,106.000000,,2013-03-06 14:42:00,
2013-03-06 09:53:00,35.0,19.0,-100.00,NNW,329,6.0,13.0,52,0.00,,,0.57,106.000000,,2013-03-06 14:53:00,
2013-03-06 10:02:00,35.0,19.0,-100.00,NNW,329,6.0,13.0,52,0.00,,,0.57,106.000000,,2013-03-06 15:02:00,
2013-03-06 10:22:00,38.0,20.0,-100.00,NW,321,13.0,26.0,48,0.00,,,0.56,416.000000,,2013-03-06 15:22:00,
2013-03-06 10:32:00,38.0,20.0,-100.00,NW,321,13.0,26.0,48,0.00,,,0.56,416.000000,,2013-03-06 15:32:00,
2013-03-06 10:42:00,38.0,20.0,-100.00,NW,321,13.0,26.0,48,0.00,,,0.56,416.000000,,2013-03-06 15:42:00,
2013-03-06 10:52:00,38.0,20.0,-100.00,NW,321,13.0,26.0,48,0.00,,,0.56,416.000000,,2013-03-06 15:52:00,
2013-03-06 11:02:00,38.0,20.0,-100.00,NW,321,13.0,26.0,48,0.00,,,0.56,416.000000,,2013-03-06 16:02:00,
2013-03-06 11:32:00,40.0,21.0,-100.00,NW,312,13.0,28.0,46,0.00,,,0.54,739.000000,,2013-03-06 16:32:00,
2013-03-06 11:42:00,40.0,21.0,-100.00,NW,312,13.0,28.0,46,0.00,,,0.54,739.000000,,2013-03-06 16:42:00,
2013-03-06 11:52:00,40.0,21.0,-100.00,NW,312,13.0,28.0,46,0.00,,,0.54,739.000000,,2013-03-06 16:52:00,
2013-03-06 12:01:00,40.0,21.0,-100.00,NW,312,13.0,28.0,46,0.00,,,0.54,739.000000,,2013-03-06 17:01:00,
2013-03-06 12:22:00,41.0,22.0,-100.00,WNW,287,11.0,23.0,46,0.00,,,0.53,807.000000,,2013-03-06 17:22:00,
2013-03-06 12:32:00,41.0,22.0,-100.00,WNW,287,11.0,23.0,46,0.00,,,0.53,807.000000,,2013-03-06 17:32:00,
2013-03-06 12:42:00,41.0,22.0,-100.00,WNW,287,11.0,23.0,46,0.00,,,0.53,807.000000,,2013-03-06 17:42:00,
2013-03-06 12:53:00,41.0,22.0,-100.00,WNW,287,11.0,23.0,46,0.00,,,0.53,807.000000,,2013-03-06 17:53:00,
2013-03-06 13:02:00,41.0,22.0,-100.00,WNW,287,11.0,23.0,46,0.00,,,0.53,807.000000,,2013-03-06 18:02:00,
2013-03-06 13:32:00,44.0,24.0,-100.00,WNW,283,10.0,22.0,45,0.00,,,0.53,838.000000,,2013-03-06 18:32:00,
2013-03-06 13:42:00,44.0,24.0,-100.00,WNW,283,10.0,22.0,45,0.00,,,0.53,838.000000,,2013-03-06 18:42:00,
2013-03-06 13:53:00,44.0,24.0,-100.00,WNW,283,10.0,22.0,45,0.00,,,0.53,838.000000,,2013-03-06 18:53:00,
2013-03-06 14:02:00,44.0,24.0,-100.00,WNW,283,10.0,22.0,45,0.00,,,0.53,838.000000,,2013-03-06 19:02:00,
2013-03-06 14:33:00,44.0,24.0,-100.00,NW,309,10.0,19.0,45,0.00,,,0.52,810.000000,,2013-03-06 19:33:00,
2013-03-06 14:43:00,44.0,24.0,-100.00,NW,309,10.0,19.0,45,0.00,,,0.52,810.000000,,2013-03-06 19:43:00,
2013-03-06 14:53:00,44.0,24.0,-100.00,NW,309,10.0,19.0,45,0.00,,,0.52,810.000000,,2013-03-06 19:53:00,
2013-03-06 15:02:00,44.0,24.0,-100.00,NW,309,10.0,19.0,45,0.00,,,0.52,810.000000,,2013-03-06 20:02:00,
2013-03-06 15:23:00,43.0,24.0,-100.00,WNW,289,10.0,21.0,47,0.00,,,0.51,672.000000,,2013-03-06 20:23:00,
2013-03-06 15:33:00,43.0,24.0,-100.00,WNW,289,10.0,21.0,47,0.00,,,0.51,672.000000,,2013-03-06 20:33:00,
2013-03-06 15:43:00,43.0,24.0,-100.00,WNW,289,10.0,21.0,47,0.00,,,0.51,672.000000,,2013-03-06 20:43:00,
2013-03-06 15:53:00,43.0,24.0,-100.00,WNW,289,10.0,21.0,47,0.00,,,0.51,672.000000,,2013-03-06 20:53:00,
2013-03-06 16:02:00,43.0,24.0,-100.00,WNW,289,10.0,21.0,47,0.00,,,0.51,672.000000,,2013-03-06 21:02:00,
2013-03-06 16:33:00,43.0,24.0,-100.00,NW,310,9.0,19.0,46,0.00,,,0.49,650.000000,,2013-03-06 21:33:00,
2013-03-06 16:42:00,43.0,24.0,-100.00,NW,310,9.0,19.0,46,0.00,,,0.49,650.000000,,2013-03-06 21:42:00,
2013-03-06 16:52:00,43.0,24.0,-100.00,NW,310,9.0,19.0,46,0.00,,,0.49,650.000000,,2013-03-06 21:52:00,
2013-03-06 17:02:00,43.0,24.0,-100.00,NW,310,9.0,19.0,46,0.00,,,0.49,650.000000,,2013-03-06 22:02:00,
2013-03-06 17:32:00,41.0,23.0,-100.00,NW,319,9.0,17.0,48,0.00,,,0.47,366.000000,,2013-03-06 22:32:00,
2013-03-06 17:42:00,41.0,23.0,-100.00,NW,319,9.0,17.0,48,0.00,,,0.47,366.000000,,2013-03-06 22:42:00,
2013-03-06 17:52:00,41.0,23.0,-100.00,NW,319,9.0,17.0,48,0.00,,,0.47,366.000000,,2013-03-06 22:52:00,
2013-03-06 18:01:00,41.0,23.0,-100.00,NW,319,9.0,17.0,48,0.00,,,0.47,366.000000,,2013-03-06 23:01:00,
2013-03-06 18:32:00,39.0,23.0,-100.00,NNW,346,6.0,19.0,53,0.00,,,0.47,170.000000,,2013-03-06 23:32:00,
2013-03-06 18:42:00,39.0,23.0,-100.00,NNW,346,6.0,19.0,53,0.00,,,0.47,170.000000,,2013-03-06 23:42:00,
2013-03-06 18:52:00,39.0,23.0,-100.00,NNW,346,6.0,19.0,53,0.00,,,0.47,170.000000,,2013-03-06 23:52:00,
2013-03-06 19:02:00,39.0,23.0,-100.00,NNW,346,6.0,19.0,53,0.00,,,0.47,170.000000,,2013-03-07 00:02:00,
2013-03-06 19:22:00,36.0,23.0,-100.00,North,350,6.0,15.0,58,0.00,,,0.31,6.000000,,2013-03-07 00:22:00,
2013-03-06 19:32:00,36.0,23.0,-100.00,North,350,6.0,15.0,58,0.00,,,0.31,6.000000,,2013-03-07 00:32:00,
2013-03-06 19:42:00,36.0,23.0,-100.00,North,350,6.0,15.0,58,0.00,,,0.31,6.000000,,2013-03-07 00:42:00,
2013-03-06 19:52:00,36.0,23.0,-100.00,North,350,6.0,15.0,58,0.00,,,0.31,6.000000,,2013-03-07 00:52:00,
2013-03-06 20:01:00,36.0,23.0,-100.00,North,350,6.0,15.0,58,0.00,,,0.31,6.000000,,2013-03-07 01:01:00,
2013-03-06 20:22:00,35.0,23.0,-100.00,North,359,2.0,9.0,61,0.00,,,0.07,0.000000,,2013-03-07 01:22:00,
2013-03-06 20:32:00,35.0,23.0,-100.00,North,359,2.0,9.0,61,0.00,,,0.07,0.000000,,2013-03-07 01:32:00,
2013-03-06 20:42:00,35.0,23.0,-100.00,North,359,2.0,9.0,61,0.00,,,0.07,0.000000,,2013-03-07 01:42:00,
2013-03-06 20:52:00,35.0,23.0,-100.00,North,359,2.0,9.0,61,0.00,,,0.07,0.000000,,2013-03-07 01:52:00,
2013-03-06 21:01:00,35.0,23.0,-100.00,North,359,2.0,9.0,61,0.00,,,0.07,0.000000,,2013-03-07 02:01:00,
2013-03-06 21:32:00,34.0,23.0,-100.00,WNW,294,3.0,6.0,63,0.00,,,0.06,0.000000,,2013-03-07 02:32:00,
2013-03-06 21:42:00,34.0,23.0,-100.00,WNW,294,3.0,6.0,63,0.00,,,0.06,0.000000,,2013-03-07 02:42:00,
2013-03-06 21:52:00,34.0,23.0,-100.00,WNW,294,3.0,6.0,63,0.00,,,0.06,0.000000,,2013-03-07 02:52:00,
2013-03-06 22:02:00,34.0,23.0,-100.00,WNW,294,3.0,6.0,63,0.00,,,0.06,0.000000,,2013-03-07 03:02:00,
2013-03-06 22:22:00,33.0,23.0,-100.00,North,359,2.0,6.0,66,0.00,,,0.06,0.000000,,2013-03-07 03:22:00,
2013-03-06 22:32:00,33.0,23.0,-100.00,North,359,2.0,6.0,66,0.00,,,0.06,0.000000,,2013-03-07 03:32:00,
2013-03-06 22:42:00,33.0,23.0,-100.00,North,359,2.0,6.0,66,0.00,,,0.06,0.000000,,2013-03-07 03:42:00,
2013-03-06 22:52:00,33.0,23.0,-100.00,North,359,2.0,6.0,66,0.00,,,0.06,0.000000,,2013-03-07 03:52:00,
2013-03-06 23:02:00,33.0,23.0,-100.00,North,359,2.0,6.0,66,0.00,,,0.06,0.000000,,2013-03-07 04:02:00,
2013-03-06 23:22:00,34.0,24.0,-100.00,NNE,17,3.0,9.0,66,0.00,,,0.02,0.000000,,2013-03-07 04:22:00,
2013-03-06 23:32:00,34.0,24.0,-100.00,NNE,17,3.0,9.0,66,0.00,,,0.02,0.000000,,2013-03-07 04:32:00,
2013-03-06 23:42:00,34.0,24.0,-100.00,NNE,17,3.0,9.0,66,0.00,,,0.02,0.000000,,2013-03-07 04:42:00,
2013-03-06 23:52:00,34.0,24.0,-100.00,NNE,17,3.0,9.0,66,0.00,,,0.02,0.000000,,2013-03-07 04:52:00,